sensor_id;sensor_type;location;lat;lon;timestamp;P1;durP1;ratioP1;P2;durP2;ratioP2
19691;SDS011;42748;50.016;19.890;2023-01-25T00:00:28;18.13;;;8.30;;
19691;SDS011;42748;50.016;19.890;2023-01-25T00:02:56;20.23;;;9.27;;
19691;SDS011;42748;50.016;19.890;2023-01-25T00:05:23;19.67;;;9.03;;
19691;SDS011;42748;50.016;19.890;2023-01-25T00:07:50;20.00;;;8.83;;
19691;SDS011;42748;50.016;19.890;2023-01-25T00:10:17;19.77;;;7.87;;
19691;SDS011;42748;50.016;19.890;2023-01-25T00:12:45;21.50;;;8.83;;
19691;SDS011;42748;50.016;19.890;2023-01-25T00:15:12;22.93;;;9.33;;
19691;SDS011;42748;50.016;19.890;2023-01-25T00:17:40;19.67;;;9.23;;
19691;SDS011;42748;50.016;19.890;2023-01-25T00:20:07;19.90;;;8.93;;
19691;SDS011;42748;50.016;19.890;2023-01-25T00:22:35;20.03;;;9.27;;
19691;SDS011;42748;50.016;19.890;2023-01-25T00:25:02;19.30;;;9.10;;
19691;SDS011;42748;50.016;19.890;2023-01-25T00:27:29;17.60;;;8.23;;
19691;SDS011;42748;50.016;19.890;2023-01-25T00:29:57;19.83;;;8.67;;
19691;SDS011;42748;50.016;19.890;2023-01-25T00:32:27;18.10;;;8.80;;
19691;SDS011;42748;50.016;19.890;2023-01-25T00:35:03;19.87;;;8.80;;
19691;SDS011;42748;50.016;19.890;2023-01-25T00:37:35;18.47;;;8.67;;
19691;SDS011;42748;50.016;19.890;2023-01-25T00:40:05;18.93;;;8.37;;
19691;SDS011;42748;50.016;19.890;2023-01-25T00:42:35;20.40;;;9.33;;
19691;SDS011;42748;50.016;19.890;2023-01-25T00:45:03;18.23;;;8.13;;
19691;SDS011;42748;50.016;19.890;2023-01-25T00:47:31;19.33;;;8.33;;
19691;SDS011;42748;50.016;19.890;2023-01-25T00:50:02;23.67;;;9.40;;
19691;SDS011;42748;50.016;19.890;2023-01-25T00:52:31;18.87;;;8.50;;
19691;SDS011;42748;50.016;19.890;2023-01-25T00:54:59;17.63;;;7.93;;
19691;SDS011;42748;50.016;19.890;2023-01-25T00:57:26;18.20;;;8.53;;
19691;SDS011;42748;50.016;19.890;2023-01-25T00:59:53;15.57;;;7.83;;
19691;SDS011;42748;50.016;19.890;2023-01-25T01:02:20;18.20;;;8.77;;
19691;SDS011;42748;50.016;19.890;2023-01-25T01:04:51;18.60;;;8.23;;
19691;SDS011;42748;50.016;19.890;2023-01-25T01:07:18;17.13;;;8.37;;
19691;SDS011;42748;50.016;19.890;2023-01-25T01:09:45;19.47;;;8.83;;
19691;SDS011;42748;50.016;19.890;2023-01-25T01:12:12;14.77;;;7.43;;
19691;SDS011;42748;50.016;19.890;2023-01-25T01:14:40;15.77;;;6.70;;
19691;SDS011;42748;50.016;19.890;2023-01-25T01:17:07;13.80;;;7.40;;
19691;SDS011;42748;50.016;19.890;2023-01-25T01:19:34;13.57;;;6.90;;
19691;SDS011;42748;50.016;19.890;2023-01-25T01:22:01;16.60;;;7.13;;
19691;SDS011;42748;50.016;19.890;2023-01-25T01:24:29;14.53;;;7.00;;
19691;SDS011;42748;50.016;19.890;2023-01-25T01:26:56;15.13;;;7.40;;
19691;SDS011;42748;50.016;19.890;2023-01-25T01:29:23;15.50;;;7.13;;
19691;SDS011;42748;50.016;19.890;2023-01-25T01:31:50;17.33;;;7.43;;
19691;SDS011;42748;50.016;19.890;2023-01-25T01:34:21;15.53;;;7.73;;
19691;SDS011;42748;50.016;19.890;2023-01-25T01:36:49;15.30;;;7.03;;
19691;SDS011;42748;50.016;19.890;2023-01-25T01:39:16;17.50;;;8.20;;
19691;SDS011;42748;50.016;19.890;2023-01-25T01:41:44;15.93;;;7.83;;
19691;SDS011;42748;50.016;19.890;2023-01-25T01:44:16;16.67;;;8.07;;
19691;SDS011;42748;50.016;19.890;2023-01-25T01:46:53;19.43;;;8.57;;
19691;SDS011;42748;50.016;19.890;2023-01-25T01:49:28;19.13;;;7.97;;
19691;SDS011;42748;50.016;19.890;2023-01-25T01:52:06;18.33;;;8.20;;
19691;SDS011;42748;50.016;19.890;2023-01-25T01:54:40;17.20;;;8.10;;
19691;SDS011;42748;50.016;19.890;2023-01-25T01:59:43;15.80;;;7.47;;
19691;SDS011;42748;50.016;19.890;2023-01-25T02:02:16;16.80;;;8.03;;
19691;SDS011;42748;50.016;19.890;2023-01-25T02:04:44;16.07;;;7.60;;
19691;SDS011;42748;50.016;19.890;2023-01-25T02:07:15;17.17;;;7.83;;
19691;SDS011;42748;50.016;19.890;2023-01-25T02:09:49;17.00;;;7.63;;
19691;SDS011;42748;50.016;19.890;2023-01-25T02:12:17;15.50;;;7.97;;
19691;SDS011;42748;50.016;19.890;2023-01-25T02:14:50;19.23;;;8.80;;
19691;SDS011;42748;50.016;19.890;2023-01-25T02:17:19;16.50;;;7.63;;
19691;SDS011;42748;50.016;19.890;2023-01-25T02:20:02;17.77;;;8.30;;
19691;SDS011;42748;50.016;19.890;2023-01-25T02:25:56;17.93;;;8.33;;
19691;SDS011;42748;50.016;19.890;2023-01-25T02:29:08;16.70;;;7.97;;
19691;SDS011;42748;50.016;19.890;2023-01-25T02:31:22;17.53;;;8.63;;
19691;SDS011;42748;50.016;19.890;2023-01-25T02:33:50;18.93;;;8.73;;
19691;SDS011;42748;50.016;19.890;2023-01-25T02:36:19;17.90;;;8.33;;
19691;SDS011;42748;50.016;19.890;2023-01-25T02:39:00;18.03;;;8.07;;
19691;SDS011;42748;50.016;19.890;2023-01-25T02:41:39;20.67;;;8.80;;
19691;SDS011;42748;50.016;19.890;2023-01-25T02:44:10;15.93;;;7.93;;
19691;SDS011;42748;50.016;19.890;2023-01-25T02:46:41;17.43;;;8.47;;
19691;SDS011;42748;50.016;19.890;2023-01-25T02:49:11;20.57;;;8.70;;
19691;SDS011;42748;50.016;19.890;2023-01-25T02:51:39;20.07;;;9.07;;
19691;SDS011;42748;50.016;19.890;2023-01-25T02:54:08;17.40;;;8.50;;
19691;SDS011;42748;50.016;19.890;2023-01-25T02:56:37;19.93;;;8.80;;
19691;SDS011;42748;50.016;19.890;2023-01-25T02:59:07;18.97;;;8.43;;
19691;SDS011;42748;50.016;19.890;2023-01-25T03:01:36;21.33;;;8.57;;
19691;SDS011;42748;50.016;19.890;2023-01-25T03:04:05;18.30;;;8.93;;
19691;SDS011;42748;50.016;19.890;2023-01-25T03:06:34;18.97;;;8.70;;
19691;SDS011;42748;50.016;19.890;2023-01-25T03:09:02;22.07;;;9.17;;
19691;SDS011;42748;50.016;19.890;2023-01-25T03:11:31;20.60;;;8.80;;
19691;SDS011;42748;50.016;19.890;2023-01-25T03:13:59;20.80;;;8.07;;
19691;SDS011;42748;50.016;19.890;2023-01-25T03:16:29;20.80;;;8.90;;
19691;SDS011;42748;50.016;19.890;2023-01-25T03:18:58;18.90;;;8.50;;
19691;SDS011;42748;50.016;19.890;2023-01-25T03:21:26;21.40;;;9.37;;
19691;SDS011;42748;50.016;19.890;2023-01-25T03:23:54;20.97;;;8.90;;
19691;SDS011;42748;50.016;19.890;2023-01-25T03:26:26;18.60;;;9.30;;
19691;SDS011;42748;50.016;19.890;2023-01-25T03:29:14;23.03;;;9.60;;
19691;SDS011;42748;50.016;19.890;2023-01-25T03:31:43;25.27;;;9.70;;
19691;SDS011;42748;50.016;19.890;2023-01-25T03:34:11;22.27;;;9.87;;
19691;SDS011;42748;50.016;19.890;2023-01-25T03:36:40;23.73;;;10.47;;
19691;SDS011;42748;50.016;19.890;2023-01-25T03:39:08;24.70;;;9.67;;
19691;SDS011;42748;50.016;19.890;2023-01-25T03:41:39;24.30;;;9.87;;
19691;SDS011;42748;50.016;19.890;2023-01-25T03:44:09;24.13;;;9.97;;
19691;SDS011;42748;50.016;19.890;2023-01-25T03:46:38;22.07;;;9.97;;
19691;SDS011;42748;50.016;19.890;2023-01-25T03:49:06;23.77;;;10.83;;
19691;SDS011;42748;50.016;19.890;2023-01-25T03:51:34;24.10;;;9.97;;
19691;SDS011;42748;50.016;19.890;2023-01-25T03:54:02;28.63;;;10.73;;
19691;SDS011;42748;50.016;19.890;2023-01-25T03:56:33;23.07;;;10.30;;
19691;SDS011;42748;50.016;19.890;2023-01-25T03:59:08;23.27;;;10.07;;
19691;SDS011;42748;50.016;19.890;2023-01-25T04:01:37;24.20;;;10.43;;
19691;SDS011;42748;50.016;19.890;2023-01-25T04:04:04;24.93;;;10.23;;
19691;SDS011;42748;50.016;19.890;2023-01-25T04:06:32;24.00;;;10.23;;
19691;SDS011;42748;50.016;19.890;2023-01-25T04:09:01;24.57;;;11.00;;
19691;SDS011;42748;50.016;19.890;2023-01-25T04:11:35;23.93;;;10.27;;
19691;SDS011;42748;50.016;19.890;2023-01-25T04:14:03;25.20;;;10.17;;
19691;SDS011;42748;50.016;19.890;2023-01-25T04:16:38;21.87;;;8.50;;
19691;SDS011;42748;50.016;19.890;2023-01-25T04:19:20;21.17;;;9.57;;
19691;SDS011;42748;50.016;19.890;2023-01-25T04:21:48;23.03;;;8.93;;
19691;SDS011;42748;50.016;19.890;2023-01-25T04:24:16;24.47;;;9.53;;
19691;SDS011;42748;50.016;19.890;2023-01-25T04:26:44;22.87;;;8.90;;
19691;SDS011;42748;50.016;19.890;2023-01-25T04:29:11;23.80;;;8.87;;
19691;SDS011;42748;50.016;19.890;2023-01-25T04:31:39;26.43;;;9.93;;
19691;SDS011;42748;50.016;19.890;2023-01-25T04:34:06;25.03;;;9.87;;
19691;SDS011;42748;50.016;19.890;2023-01-25T04:36:33;27.03;;;10.53;;
19691;SDS011;42748;50.016;19.890;2023-01-25T04:39:00;25.57;;;9.73;;
19691;SDS011;42748;50.016;19.890;2023-01-25T04:41:28;25.40;;;9.77;;
19691;SDS011;42748;50.016;19.890;2023-01-25T04:43:57;25.00;;;10.03;;
19691;SDS011;42748;50.016;19.890;2023-01-25T04:46:25;24.47;;;9.53;;
19691;SDS011;42748;50.016;19.890;2023-01-25T04:48:53;25.53;;;10.10;;
19691;SDS011;42748;50.016;19.890;2023-01-25T04:51:20;26.43;;;10.57;;
19691;SDS011;42748;50.016;19.890;2023-01-25T04:53:47;25.90;;;9.83;;
19691;SDS011;42748;50.016;19.890;2023-01-25T04:56:15;28.87;;;10.77;;
19691;SDS011;42748;50.016;19.890;2023-01-25T04:58:54;28.07;;;10.63;;
19691;SDS011;42748;50.016;19.890;2023-01-25T05:01:21;30.90;;;10.80;;
19691;SDS011;42748;50.016;19.890;2023-01-25T05:03:50;23.27;;;9.17;;
19691;SDS011;42748;50.016;19.890;2023-01-25T05:06:26;29.80;;;10.27;;
19691;SDS011;42748;50.016;19.890;2023-01-25T05:08:53;30.13;;;11.77;;
19691;SDS011;42748;50.016;19.890;2023-01-25T05:11:21;26.17;;;10.23;;
19691;SDS011;42748;50.016;19.890;2023-01-25T05:14:00;24.60;;;9.80;;
19691;SDS011;42748;50.016;19.890;2023-01-25T05:16:30;29.07;;;10.83;;
19691;SDS011;42748;50.016;19.890;2023-01-25T05:18:59;26.13;;;10.70;;
19691;SDS011;42748;50.016;19.890;2023-01-25T05:21:46;24.33;;;9.67;;
19691;SDS011;42748;50.016;19.890;2023-01-25T05:24:37;25.33;;;10.03;;
19691;SDS011;42748;50.016;19.890;2023-01-25T05:27:10;28.37;;;10.93;;
19691;SDS011;42748;50.016;19.890;2023-01-25T05:29:58;28.50;;;10.43;;
19691;SDS011;42748;50.016;19.890;2023-01-25T05:32:35;27.77;;;10.23;;
19691;SDS011;42748;50.016;19.890;2023-01-25T05:35:02;25.03;;;10.50;;
19691;SDS011;42748;50.016;19.890;2023-01-25T05:37:29;25.67;;;10.43;;
19691;SDS011;42748;50.016;19.890;2023-01-25T05:40:01;28.13;;;10.93;;
19691;SDS011;42748;50.016;19.890;2023-01-25T05:42:34;30.47;;;10.53;;
19691;SDS011;42748;50.016;19.890;2023-01-25T05:45:04;28.47;;;10.57;;
19691;SDS011;42748;50.016;19.890;2023-01-25T05:47:34;27.67;;;10.80;;
19691;SDS011;42748;50.016;19.890;2023-01-25T05:50:01;30.27;;;10.97;;
19691;SDS011;42748;50.016;19.890;2023-01-25T05:52:44;28.07;;;10.37;;
19691;SDS011;42748;50.016;19.890;2023-01-25T05:55:12;29.93;;;11.27;;
19691;SDS011;42748;50.016;19.890;2023-01-25T05:57:41;28.00;;;11.43;;
19691;SDS011;42748;50.016;19.890;2023-01-25T06:00:09;24.27;;;9.50;;
19691;SDS011;42748;50.016;19.890;2023-01-25T06:02:40;26.07;;;10.03;;
19691;SDS011;42748;50.016;19.890;2023-01-25T06:05:13;20.30;;;9.23;;
19691;SDS011;42748;50.016;19.890;2023-01-25T06:07:41;23.43;;;9.33;;
19691;SDS011;42748;50.016;19.890;2023-01-25T06:10:09;22.70;;;9.30;;
19691;SDS011;42748;50.016;19.890;2023-01-25T06:12:36;23.30;;;9.10;;
19691;SDS011;42748;50.016;19.890;2023-01-25T06:15:06;25.53;;;10.17;;
19691;SDS011;42748;50.016;19.890;2023-01-25T06:17:34;23.73;;;9.70;;
19691;SDS011;42748;50.016;19.890;2023-01-25T06:20:14;25.00;;;10.23;;
19691;SDS011;42748;50.016;19.890;2023-01-25T06:22:57;26.87;;;10.97;;
19691;SDS011;42748;50.016;19.890;2023-01-25T06:25:25;24.20;;;9.67;;
19691;SDS011;42748;50.016;19.890;2023-01-25T06:27:53;24.73;;;10.13;;
19691;SDS011;42748;50.016;19.890;2023-01-25T06:30:20;29.53;;;11.13;;
19691;SDS011;42748;50.016;19.890;2023-01-25T06:32:47;25.77;;;10.53;;
19691;SDS011;42748;50.016;19.890;2023-01-25T06:35:15;25.27;;;10.27;;
19691;SDS011;42748;50.016;19.890;2023-01-25T06:37:43;26.83;;;10.60;;
19691;SDS011;42748;50.016;19.890;2023-01-25T06:40:10;25.00;;;9.97;;
19691;SDS011;42748;50.016;19.890;2023-01-25T06:42:38;25.00;;;9.50;;
19691;SDS011;42748;50.016;19.890;2023-01-25T06:45:05;25.53;;;10.00;;
19691;SDS011;42748;50.016;19.890;2023-01-25T06:47:33;23.87;;;10.30;;
19691;SDS011;42748;50.016;19.890;2023-01-25T06:50:00;21.83;;;9.70;;
19691;SDS011;42748;50.016;19.890;2023-01-25T06:52:27;25.67;;;10.00;;
19691;SDS011;42748;50.016;19.890;2023-01-25T06:54:56;23.03;;;9.60;;
19691;SDS011;42748;50.016;19.890;2023-01-25T06:57:23;24.10;;;9.97;;
19691;SDS011;42748;50.016;19.890;2023-01-25T06:59:50;22.10;;;9.53;;
19691;SDS011;42748;50.016;19.890;2023-01-25T07:02:17;24.87;;;10.17;;
19691;SDS011;42748;50.016;19.890;2023-01-25T07:04:44;21.30;;;9.37;;
19691;SDS011;42748;50.016;19.890;2023-01-25T07:07:11;21.63;;;9.50;;
19691;SDS011;42748;50.016;19.890;2023-01-25T07:09:38;24.10;;;9.57;;
19691;SDS011;42748;50.016;19.890;2023-01-25T07:12:05;26.43;;;10.40;;
19691;SDS011;42748;50.016;19.890;2023-01-25T07:14:33;28.30;;;10.47;;
19691;SDS011;42748;50.016;19.890;2023-01-25T07:17:00;27.20;;;10.23;;
19691;SDS011;42748;50.016;19.890;2023-01-25T07:19:29;72.03;;;29.63;;
19691;SDS011;42748;50.016;19.890;2023-01-25T07:21:56;29.97;;;11.40;;
19691;SDS011;42748;50.016;19.890;2023-01-25T07:24:23;25.73;;;10.10;;
19691;SDS011;42748;50.016;19.890;2023-01-25T07:26:55;28.23;;;11.20;;
19691;SDS011;42748;50.016;19.890;2023-01-25T07:29:22;22.10;;;10.27;;
19691;SDS011;42748;50.016;19.890;2023-01-25T07:31:49;26.90;;;10.77;;
19691;SDS011;42748;50.016;19.890;2023-01-25T07:34:16;23.93;;;10.23;;
19691;SDS011;42748;50.016;19.890;2023-01-25T07:36:43;25.50;;;10.80;;
19691;SDS011;42748;50.016;19.890;2023-01-25T07:39:12;21.20;;;9.50;;
19691;SDS011;42748;50.016;19.890;2023-01-25T07:41:39;22.60;;;9.40;;
19691;SDS011;42748;50.016;19.890;2023-01-25T07:44:11;22.77;;;9.47;;
19691;SDS011;42748;50.016;19.890;2023-01-25T07:46:48;25.13;;;9.23;;
19691;SDS011;42748;50.016;19.890;2023-01-25T07:49:15;21.40;;;9.30;;
19691;SDS011;42748;50.016;19.890;2023-01-25T07:51:42;23.53;;;8.60;;
19691;SDS011;42748;50.016;19.890;2023-01-25T07:54:09;18.67;;;8.47;;
19691;SDS011;42748;50.016;19.890;2023-01-25T07:56:37;20.50;;;8.97;;
19691;SDS011;42748;50.016;19.890;2023-01-25T07:59:06;18.30;;;8.87;;
19691;SDS011;42748;50.016;19.890;2023-01-25T08:01:38;20.07;;;9.03;;
19691;SDS011;42748;50.016;19.890;2023-01-25T08:04:05;20.77;;;9.00;;
19691;SDS011;42748;50.016;19.890;2023-01-25T08:06:35;25.67;;;10.90;;
19691;SDS011;42748;50.016;19.890;2023-01-25T08:09:07;23.70;;;10.27;;
19691;SDS011;42748;50.016;19.890;2023-01-25T08:11:40;24.07;;;9.80;;
19691;SDS011;42748;50.016;19.890;2023-01-25T08:14:07;19.07;;;8.93;;
19691;SDS011;42748;50.016;19.890;2023-01-25T08:16:36;20.93;;;8.80;;
19691;SDS011;42748;50.016;19.890;2023-01-25T08:19:03;19.77;;;8.50;;
19691;SDS011;42748;50.016;19.890;2023-01-25T08:21:32;20.47;;;9.03;;
19691;SDS011;42748;50.016;19.890;2023-01-25T08:24:02;21.90;;;9.27;;
19691;SDS011;42748;50.016;19.890;2023-01-25T08:26:31;22.27;;;10.20;;
19691;SDS011;42748;50.016;19.890;2023-01-25T08:28:59;23.77;;;10.40;;
19691;SDS011;42748;50.016;19.890;2023-01-25T08:31:27;22.97;;;10.00;;
19691;SDS011;42748;50.016;19.890;2023-01-25T08:33:56;23.20;;;10.30;;
19691;SDS011;42748;50.016;19.890;2023-01-25T08:36:24;26.87;;;10.60;;
19691;SDS011;42748;50.016;19.890;2023-01-25T08:38:57;26.90;;;10.93;;
19691;SDS011;42748;50.016;19.890;2023-01-25T08:41:26;24.17;;;10.33;;
19691;SDS011;42748;50.016;19.890;2023-01-25T08:43:54;23.00;;;10.37;;
19691;SDS011;42748;50.016;19.890;2023-01-25T08:46:22;20.63;;;9.00;;
19691;SDS011;42748;50.016;19.890;2023-01-25T08:48:54;22.60;;;9.70;;
19691;SDS011;42748;50.016;19.890;2023-01-25T08:51:23;22.80;;;9.47;;
19691;SDS011;42748;50.016;19.890;2023-01-25T08:53:51;20.33;;;9.20;;
19691;SDS011;42748;50.016;19.890;2023-01-25T08:56:18;23.77;;;10.33;;
19691;SDS011;42748;50.016;19.890;2023-01-25T08:58:47;24.87;;;10.30;;
19691;SDS011;42748;50.016;19.890;2023-01-25T09:01:17;19.10;;;8.83;;
19691;SDS011;42748;50.016;19.890;2023-01-25T09:03:45;19.43;;;9.10;;
19691;SDS011;42748;50.016;19.890;2023-01-25T09:06:14;19.97;;;8.93;;
19691;SDS011;42748;50.016;19.890;2023-01-25T09:08:42;14.87;;;6.93;;
19691;SDS011;42748;50.016;19.890;2023-01-25T09:11:11;14.40;;;7.17;;
19691;SDS011;42748;50.016;19.890;2023-01-25T09:13:39;13.50;;;6.70;;
19691;SDS011;42748;50.016;19.890;2023-01-25T09:16:10;13.97;;;7.27;;
19691;SDS011;42748;50.016;19.890;2023-01-25T09:18:39;13.90;;;7.17;;
19691;SDS011;42748;50.016;19.890;2023-01-25T09:21:09;13.60;;;7.00;;
19691;SDS011;42748;50.016;19.890;2023-01-25T09:23:38;15.10;;;7.10;;
19691;SDS011;42748;50.016;19.890;2023-01-25T09:26:23;14.27;;;6.43;;
19691;SDS011;42748;50.016;19.890;2023-01-25T09:28:51;14.93;;;6.70;;
19691;SDS011;42748;50.016;19.890;2023-01-25T09:31:19;13.23;;;6.63;;
19691;SDS011;42748;50.016;19.890;2023-01-25T09:34:10;11.10;;;6.17;;
19691;SDS011;42748;50.016;19.890;2023-01-25T09:36:38;12.53;;;6.30;;
19691;SDS011;42748;50.016;19.890;2023-01-25T09:39:05;15.33;;;7.27;;
19691;SDS011;42748;50.016;19.890;2023-01-25T09:47:01;13.23;;;6.63;;
19691;SDS011;42748;50.016;19.890;2023-01-25T09:55:35;13.70;;;6.70;;
19691;SDS011;42748;50.016;19.890;2023-01-25T09:58:03;12.07;;;6.60;;
19691;SDS011;42748;50.016;19.890;2023-01-25T10:00:37;14.67;;;7.43;;
19691;SDS011;42748;50.016;19.890;2023-01-25T10:03:24;11.33;;;5.80;;
19691;SDS011;42748;50.016;19.890;2023-01-25T10:05:58;12.50;;;6.30;;
19691;SDS011;42748;50.016;19.890;2023-01-25T10:13:57;12.67;;;6.60;;
19691;SDS011;42748;50.016;19.890;2023-01-25T10:22:04;14.43;;;6.73;;
19691;SDS011;42748;50.016;19.890;2023-01-25T10:27:38;10.30;;;5.47;;
19691;SDS011;42748;50.016;19.890;2023-01-25T10:30:26;10.07;;;5.43;;
19691;SDS011;42748;50.016;19.890;2023-01-25T10:33:10;11.93;;;5.93;;
19691;SDS011;42748;50.016;19.890;2023-01-25T10:35:46;13.43;;;5.87;;
19691;SDS011;42748;50.016;19.890;2023-01-25T10:38:26;11.37;;;5.83;;
19691;SDS011;42748;50.016;19.890;2023-01-25T10:41:23;11.97;;;6.00;;
19691;SDS011;42748;50.016;19.890;2023-01-25T10:44:04;12.13;;;6.40;;
19691;SDS011;42748;50.016;19.890;2023-01-25T10:46:58;12.67;;;6.23;;
19691;SDS011;42748;50.016;19.890;2023-01-25T10:49:28;13.37;;;6.47;;
19691;SDS011;42748;50.016;19.890;2023-01-25T10:52:03;13.40;;;6.70;;
19691;SDS011;42748;50.016;19.890;2023-01-25T10:54:45;16.67;;;7.03;;
19691;SDS011;42748;50.016;19.890;2023-01-25T10:57:19;18.13;;;7.07;;
19691;SDS011;42748;50.016;19.890;2023-01-25T10:59:48;15.30;;;7.60;;
19691;SDS011;42748;50.016;19.890;2023-01-25T11:07:55;15.17;;;7.53;;
19691;SDS011;42748;50.016;19.890;2023-01-25T11:15:43;22.00;;;10.00;;
19691;SDS011;42748;50.016;19.890;2023-01-25T11:18:22;20.63;;;9.73;;
19691;SDS011;42748;50.016;19.890;2023-01-25T11:21:27;21.33;;;9.83;;
19691;SDS011;42748;50.016;19.890;2023-01-25T11:23:57;17.77;;;9.00;;
19691;SDS011;42748;50.016;19.890;2023-01-25T11:26:38;16.03;;;8.10;;
19691;SDS011;42748;50.016;19.890;2023-01-25T11:29:18;15.63;;;8.27;;
19691;SDS011;42748;50.016;19.890;2023-01-25T11:31:48;16.50;;;7.90;;
19691;SDS011;42748;50.016;19.890;2023-01-25T11:34:28;14.00;;;7.17;;
19691;SDS011;42748;50.016;19.890;2023-01-25T11:51:05;10.27;;;5.47;;
19691;SDS011;42748;50.016;19.890;2023-01-25T11:53:41;14.20;;;6.87;;
19691;SDS011;42748;50.016;19.890;2023-01-25T12:13:39;19.37;;;9.70;;
19691;SDS011;42748;50.016;19.890;2023-01-25T12:25:23;18.63;;;8.67;;
19691;SDS011;42748;50.016;19.890;2023-01-25T12:28:06;18.93;;;8.27;;
19691;SDS011;42748;50.016;19.890;2023-01-25T12:36:42;15.53;;;7.50;;
19691;SDS011;42748;50.016;19.890;2023-01-25T12:41:44;12.20;;;6.37;;
19691;SDS011;42748;50.016;19.890;2023-01-25T12:47:05;10.37;;;5.03;;
19691;SDS011;42748;50.016;19.890;2023-01-25T12:49:36;7.43;;;3.60;;
19691;SDS011;42748;50.016;19.890;2023-01-25T12:52:41;8.70;;;4.47;;
19691;SDS011;42748;50.016;19.890;2023-01-25T12:55:04;10.80;;;5.20;;
19691;SDS011;42748;50.016;19.890;2023-01-25T13:00:53;10.03;;;5.20;;
19691;SDS011;42748;50.016;19.890;2023-01-25T13:11:21;16.50;;;7.43;;
19691;SDS011;42748;50.016;19.890;2023-01-25T13:16:49;14.70;;;7.80;;
19691;SDS011;42748;50.016;19.890;2023-01-25T13:22:02;17.73;;;7.77;;
19691;SDS011;42748;50.016;19.890;2023-01-25T13:24:30;15.47;;;7.83;;
19691;SDS011;42748;50.016;19.890;2023-01-25T13:27:03;19.87;;;8.23;;
19691;SDS011;42748;50.016;19.890;2023-01-25T13:29:53;16.27;;;7.33;;
19691;SDS011;42748;50.016;19.890;2023-01-25T13:34:55;14.83;;;7.43;;
19691;SDS011;42748;50.016;19.890;2023-01-25T13:37:27;13.93;;;6.40;;
19691;SDS011;42748;50.016;19.890;2023-01-25T13:42:34;12.97;;;5.93;;
19691;SDS011;42748;50.016;19.890;2023-01-25T13:47:35;11.40;;;5.70;;
19691;SDS011;42748;50.016;19.890;2023-01-25T13:52:54;8.03;;;4.50;;
19691;SDS011;42748;50.016;19.890;2023-01-25T13:55:22;9.87;;;5.20;;
19691;SDS011;42748;50.016;19.890;2023-01-25T13:57:49;10.67;;;4.90;;
19691;SDS011;42748;50.016;19.890;2023-01-25T14:00:17;9.47;;;5.10;;
19691;SDS011;42748;50.016;19.890;2023-01-25T14:02:50;9.63;;;4.90;;
19691;SDS011;42748;50.016;19.890;2023-01-25T14:05:23;8.17;;;4.40;;
19691;SDS011;42748;50.016;19.890;2023-01-25T14:07:53;9.30;;;4.50;;
19691;SDS011;42748;50.016;19.890;2023-01-25T14:10:23;8.73;;;4.53;;
19691;SDS011;42748;50.016;19.890;2023-01-25T14:13:02;10.07;;;5.03;;
19691;SDS011;42748;50.016;19.890;2023-01-25T14:15:29;10.70;;;5.13;;
19691;SDS011;42748;50.016;19.890;2023-01-25T14:18:08;9.70;;;5.23;;
19691;SDS011;42748;50.016;19.890;2023-01-25T14:20:42;9.63;;;4.87;;
19691;SDS011;42748;50.016;19.890;2023-01-25T14:25:51;10.40;;;5.60;;
19691;SDS011;42748;50.016;19.890;2023-01-25T14:28:19;12.20;;;6.00;;
19691;SDS011;42748;50.016;19.890;2023-01-25T14:30:54;10.93;;;5.57;;
19691;SDS011;42748;50.016;19.890;2023-01-25T14:33:25;11.00;;;5.90;;
19691;SDS011;42748;50.016;19.890;2023-01-25T14:35:55;12.00;;;5.43;;
19691;SDS011;42748;50.016;19.890;2023-01-25T14:38:49;12.43;;;6.13;;
19691;SDS011;42748;50.016;19.890;2023-01-25T14:41:18;11.27;;;5.93;;
19691;SDS011;42748;50.016;19.890;2023-01-25T14:43:52;12.27;;;6.00;;
19691;SDS011;42748;50.016;19.890;2023-01-25T14:46:28;12.17;;;5.90;;
19691;SDS011;42748;50.016;19.890;2023-01-25T14:51:39;11.00;;;5.83;;
19691;SDS011;42748;50.016;19.890;2023-01-25T14:54:29;12.77;;;5.80;;
19691;SDS011;42748;50.016;19.890;2023-01-25T14:56:58;10.53;;;5.60;;
19691;SDS011;42748;50.016;19.890;2023-01-25T14:59:37;10.17;;;5.87;;
19691;SDS011;42748;50.016;19.890;2023-01-25T15:04:53;12.70;;;5.97;;
19691;SDS011;42748;50.016;19.890;2023-01-25T15:07:42;13.17;;;7.03;;
19691;SDS011;42748;50.016;19.890;2023-01-25T15:10:20;15.07;;;6.50;;
19691;SDS011;42748;50.016;19.890;2023-01-25T15:21:18;14.00;;;7.23;;
19691;SDS011;42748;50.016;19.890;2023-01-25T15:23:47;13.57;;;6.97;;
19691;SDS011;42748;50.016;19.890;2023-01-25T15:26:22;13.37;;;6.70;;
19691;SDS011;42748;50.016;19.890;2023-01-25T15:28:59;9.10;;;4.80;;
19691;SDS011;42748;50.016;19.890;2023-01-25T15:31:28;9.83;;;5.47;;
19691;SDS011;42748;50.016;19.890;2023-01-25T15:33:58;6.83;;;3.60;;
19691;SDS011;42748;50.016;19.890;2023-01-25T15:36:27;7.90;;;4.30;;
19691;SDS011;42748;50.016;19.890;2023-01-25T15:38:55;7.77;;;4.20;;
19691;SDS011;42748;50.016;19.890;2023-01-25T15:41:22;7.57;;;4.10;;
19691;SDS011;42748;50.016;19.890;2023-01-25T15:43:50;9.43;;;4.47;;
19691;SDS011;42748;50.016;19.890;2023-01-25T15:46:19;8.30;;;4.50;;
19691;SDS011;42748;50.016;19.890;2023-01-25T15:48:51;9.67;;;4.57;;
19691;SDS011;42748;50.016;19.890;2023-01-25T15:51:20;11.70;;;5.53;;
19691;SDS011;42748;50.016;19.890;2023-01-25T15:53:48;9.47;;;5.03;;
19691;SDS011;42748;50.016;19.890;2023-01-25T15:56:20;10.43;;;4.93;;
19691;SDS011;42748;50.016;19.890;2023-01-25T15:58:51;11.40;;;5.80;;
19691;SDS011;42748;50.016;19.890;2023-01-25T16:01:24;11.10;;;4.93;;
19691;SDS011;42748;50.016;19.890;2023-01-25T16:03:55;11.03;;;5.50;;
19691;SDS011;42748;50.016;19.890;2023-01-25T16:09:01;9.53;;;5.00;;
19691;SDS011;42748;50.016;19.890;2023-01-25T16:11:38;11.30;;;5.57;;
19691;SDS011;42748;50.016;19.890;2023-01-25T16:14:05;12.47;;;5.90;;
19691;SDS011;42748;50.016;19.890;2023-01-25T16:16:33;12.03;;;5.63;;
19691;SDS011;42748;50.016;19.890;2023-01-25T16:19:04;11.67;;;6.20;;
19691;SDS011;42748;50.016;19.890;2023-01-25T16:21:31;12.43;;;6.10;;
19691;SDS011;42748;50.016;19.890;2023-01-25T16:23:59;11.00;;;5.70;;
19691;SDS011;42748;50.016;19.890;2023-01-25T16:26:26;10.17;;;5.57;;
19691;SDS011;42748;50.016;19.890;2023-01-25T16:28:54;10.90;;;5.47;;
19691;SDS011;42748;50.016;19.890;2023-01-25T16:31:21;10.73;;;5.87;;
19691;SDS011;42748;50.016;19.890;2023-01-25T16:33:59;11.10;;;5.90;;
19691;SDS011;42748;50.016;19.890;2023-01-25T16:36:27;13.03;;;6.13;;
19691;SDS011;42748;50.016;19.890;2023-01-25T16:38:54;14.00;;;7.10;;
19691;SDS011;42748;50.016;19.890;2023-01-25T16:41:22;13.83;;;7.13;;
19691;SDS011;42748;50.016;19.890;2023-01-25T16:43:49;12.63;;;6.57;;
19691;SDS011;42748;50.016;19.890;2023-01-25T16:46:20;14.97;;;7.67;;
19691;SDS011;42748;50.016;19.890;2023-01-25T16:48:49;14.37;;;7.80;;
19691;SDS011;42748;50.016;19.890;2023-01-25T16:51:21;16.60;;;8.67;;
19691;SDS011;42748;50.016;19.890;2023-01-25T16:53:50;16.00;;;7.80;;
19691;SDS011;42748;50.016;19.890;2023-01-25T16:56:22;15.00;;;7.37;;
19691;SDS011;42748;50.016;19.890;2023-01-25T16:58:51;16.33;;;7.90;;
19691;SDS011;42748;50.016;19.890;2023-01-25T17:01:20;14.20;;;7.17;;